createdAt,value
2023-02-14T00:00:39.270Z,63.47
2023-02-14T00:03:08.601Z,63.71
2023-02-14T00:05:38.262Z,63.69
2023-02-14T00:08:04.849Z,64.21
2023-02-14T00:10:35.188Z,64.10
2023-02-14T00:13:02.068Z,64.13
2023-02-14T00:15:35.964Z,64.16
2023-02-14T00:18:04.581Z,63.83
2023-02-14T00:20:31.148Z,64.17
2023-02-14T00:22:57.846Z,64.24
2023-02-14T00:25:24.414Z,63.70
2023-02-14T00:27:51.367Z,63.84
2023-02-14T00:30:20.705Z,63.76
2023-02-14T00:32:51.787Z,63.67
2023-02-14T00:35:23.686Z,63.68
2023-02-14T00:37:56.783Z,64.08
2023-02-14T00:40:23.566Z,63.91
2023-02-14T00:42:51.936Z,64.33
2023-02-14T00:45:20.500Z,64.10
2023-02-14T00:47:49.572Z,64.20
2023-02-14T00:50:19.818Z,63.95
2023-02-14T00:52:46.433Z,64.30
2023-02-14T00:55:13.080Z,64.50
2023-02-14T00:57:45.599Z,64.05
2023-02-14T01:00:13.777Z,64.34
2023-02-14T01:02:43.499Z,64.43
2023-02-14T01:05:10.262Z,64.38
2023-02-14T01:07:36.994Z,64.42
2023-02-14T01:10:05.010Z,64.66
2023-02-14T01:15:12.077Z,64.66
2023-02-14T01:17:38.738Z,64.72
2023-02-14T01:20:06.335Z,65.11
2023-02-14T01:22:42.533Z,65.02
2023-02-14T01:25:09.257Z,64.94
2023-02-14T01:27:35.980Z,64.87
2023-02-14T01:30:06.702Z,64.91
2023-02-14T01:32:34.108Z,64.81
2023-02-14T01:35:04.844Z,65.26
2023-02-14T01:37:34.769Z,65.17
2023-02-14T01:40:02.452Z,65.38
2023-02-14T01:42:36.940Z,64.91
2023-02-14T01:45:19.579Z,64.95
2023-02-14T01:47:51.864Z,65.18
2023-02-14T01:50:30.265Z,65.22
2023-02-14T01:53:06.450Z,64.79
2023-02-14T01:55:39.885Z,65.14
2023-02-14T01:58:17.748Z,65.29
2023-02-14T02:00:59.998Z,65.23
2023-02-14T02:03:57.885Z,65.13
2023-02-14T02:06:40.335Z,64.80
2023-02-14T02:09:31.297Z,64.92
2023-02-14T02:12:04.177Z,64.80
2023-02-14T02:14:31.963Z,64.78
2023-02-14T02:17:20.635Z,65.50
2023-02-14T02:20:21.750Z,65.44
2023-02-14T02:23:21.988Z,65.50
2023-02-14T02:26:19.201Z,65.34
2023-02-14T02:28:48.601Z,65.00
2023-02-14T02:31:49.937Z,65.38
2023-02-14T02:34:44.018Z,65.50
2023-02-14T02:37:19.494Z,65.82
2023-02-14T02:40:00.087Z,65.66
2023-02-14T02:42:53.481Z,65.71
2023-02-14T02:45:32.608Z,66.13
2023-02-14T02:48:11.935Z,66.23
2023-02-14T02:51:13.245Z,65.65
2023-02-14T02:54:04.598Z,66.21
2023-02-14T02:56:48.877Z,65.52
2023-02-14T02:59:32.020Z,65.78
2023-02-14T03:02:12.838Z,65.56
2023-02-14T03:04:54.083Z,65.51
2023-02-14T03:07:37.110Z,65.77
2023-02-14T03:10:24.301Z,65.84
2023-02-14T03:13:15.951Z,65.35
2023-02-14T03:16:25.920Z,65.66
2023-02-14T03:19:40.186Z,65.32
2023-02-14T03:22:43.569Z,65.89
2023-02-14T03:25:38.294Z,66.17
2023-02-14T03:28:15.875Z,65.88
2023-02-14T03:31:06.980Z,66.33
2023-02-14T03:33:39.483Z,66.09
2023-02-14T03:36:19.498Z,65.85
2023-02-14T03:39:06.121Z,65.59
2023-02-14T03:41:42.508Z,65.69
2023-02-14T03:44:12.506Z,65.22
2023-02-14T03:47:11.652Z,65.18
2023-02-14T03:49:49.020Z,65.88
2023-02-14T03:52:24.669Z,65.65
2023-02-14T03:54:55.765Z,66.06
2023-02-14T03:57:44.692Z,66.18
2023-02-14T04:00:17.415Z,66.35
2023-02-14T04:03:07.160Z,66.14
2023-02-14T04:05:49.901Z,65.77
2023-02-14T04:08:25.989Z,65.97
2023-02-14T04:10:53.277Z,65.88
2023-02-14T04:13:25.277Z,65.52
2023-02-14T04:15:52.009Z,65.61
2023-02-14T04:18:37.247Z,66.29
2023-02-14T04:21:04.057Z,66.44
2023-02-14T04:23:35.072Z,66.14
2023-02-14T04:26:09.254Z,66.49
2023-02-14T04:28:35.954Z,66.40
2023-02-14T04:31:05.124Z,66.35
2023-02-14T04:33:32.642Z,66.57
2023-02-14T04:36:08.326Z,66.62
2023-02-14T04:38:41.041Z,66.38
2023-02-14T04:41:07.821Z,66.60
2023-02-14T04:43:40.314Z,66.52
2023-02-14T04:46:18.543Z,66.16
2023-02-14T04:48:49.731Z,66.42
2023-02-14T04:51:18.943Z,65.87
2023-02-14T04:53:47.967Z,66.09
2023-02-14T04:56:39.586Z,65.97
2023-02-14T04:59:10.410Z,65.77
2023-02-14T05:01:45.046Z,65.50
2023-02-14T05:04:11.804Z,66.59
2023-02-14T05:06:45.583Z,66.81
2023-02-14T05:09:15.007Z,66.64
2023-02-14T05:11:49.060Z,66.02
2023-02-14T05:14:26.143Z,66.23
2023-02-14T05:16:56.882Z,66.30
2023-02-14T05:19:30.189Z,66.19
2023-02-14T05:22:03.982Z,66.80
2023-02-14T05:24:34.770Z,66.78
2023-02-14T05:27:07.127Z,66.87
2023-02-14T05:29:37.284Z,66.52
2023-02-14T05:32:05.669Z,66.64
2023-02-14T05:34:34.061Z,66.30
2023-02-14T05:37:02.778Z,66.25
2023-02-14T05:39:37.382Z,66.02
2023-02-14T05:42:04.272Z,66.43
2023-02-14T05:44:31.290Z,66.44
2023-02-14T05:46:58.192Z,66.00
2023-02-14T05:49:24.760Z,65.99
2023-02-14T05:51:55.785Z,66.25
2023-02-14T05:54:24.738Z,65.99
2023-02-14T05:56:51.362Z,65.89
2023-02-14T05:59:17.945Z,65.98
2023-02-14T06:01:44.580Z,66.04
2023-02-14T06:04:11.309Z,66.50
2023-02-14T06:06:41.726Z,66.68
2023-02-14T06:09:36.756Z,66.76
2023-02-14T06:12:04.857Z,66.32
2023-02-14T06:14:42.883Z,66.19
2023-02-14T06:17:14.648Z,66.57
2023-02-14T06:19:41.792Z,66.27
2023-02-14T06:22:22.832Z,66.37
2023-02-14T06:24:52.617Z,66.34
2023-02-14T06:27:22.330Z,66.09
2023-02-14T06:29:49.786Z,65.93
2023-02-14T06:32:27.141Z,65.26
2023-02-14T06:34:56.254Z,65.67
2023-02-14T06:37:29.092Z,65.80
2023-02-14T06:39:56.126Z,66.46
2023-02-14T06:42:22.684Z,66.71
2023-02-14T06:44:51.899Z,66.27
2023-02-14T06:47:18.614Z,66.99
2023-02-14T06:49:52.697Z,66.51
2023-02-14T06:52:22.089Z,66.31
2023-02-14T06:54:49.801Z,65.70
2023-02-14T07:00:18.303Z,65.57
2023-02-14T07:02:45.130Z,65.98
2023-02-14T07:05:20.096Z,66.55
2023-02-14T07:07:54.517Z,65.84
2023-02-14T07:10:21.145Z,66.24
2023-02-14T07:12:54.243Z,65.42
2023-02-14T07:15:32.909Z,65.18
2023-02-14T07:17:59.700Z,65.27
2023-02-14T07:20:29.571Z,65.31
2023-02-14T07:23:08.100Z,65.07
2023-02-14T07:25:41.266Z,65.30
2023-02-14T07:28:07.945Z,65.24
2023-02-14T07:30:34.662Z,65.07
2023-02-14T07:33:01.386Z,63.97
2023-02-14T07:35:30.155Z,63.50
2023-02-14T07:37:56.715Z,63.05
2023-02-14T07:40:26.809Z,62.85
2023-02-14T07:42:55.153Z,62.92
2023-02-14T07:45:22.504Z,62.51
2023-02-14T07:47:51.246Z,62.19
2023-02-14T07:53:10.959Z,61.32
2023-02-14T07:55:43.657Z,60.80
2023-02-14T07:58:10.357Z,60.87
2023-02-14T08:00:40.087Z,59.87
2023-02-14T08:03:08.900Z,59.51
2023-02-14T08:05:42.161Z,58.86
2023-02-14T08:08:09.204Z,58.13
2023-02-14T08:10:37.902Z,57.92
2023-02-14T08:13:06.128Z,57.71
2023-02-14T08:18:44.153Z,57.36
2023-02-14T08:21:15.912Z,57.47
2023-02-14T08:23:47.578Z,56.74
2023-02-14T08:26:14.824Z,56.65
2023-02-14T08:28:42.774Z,56.74
2023-02-14T08:31:19.026Z,56.23
2023-02-14T08:33:53.282Z,56.05
2023-02-14T08:36:22.625Z,55.91
2023-02-14T08:38:52.511Z,55.35
2023-02-14T08:41:25.192Z,55.83
2023-02-14T08:43:52.256Z,54.98
2023-02-14T08:46:24.899Z,55.70
2023-02-14T08:49:02.938Z,54.80
2023-02-14T08:51:39.387Z,54.85
2023-02-14T08:54:08.790Z,54.84
2023-02-14T08:56:43.291Z,55.06
2023-02-14T08:59:10.842Z,54.54
2023-02-14T09:01:37.652Z,54.77
2023-02-14T09:04:07.416Z,54.85
2023-02-14T09:06:41.266Z,54.86
2023-02-14T09:09:10.712Z,53.99
2023-02-14T09:11:46.597Z,54.65
2023-02-14T09:14:27.106Z,53.80
2023-02-14T09:16:53.931Z,54.08
2023-02-14T09:19:28.956Z,53.28
2023-02-14T09:21:59.934Z,53.67
2023-02-14T09:24:36.315Z,53.47
2023-02-14T09:27:04.363Z,53.92
2023-02-14T09:29:34.112Z,53.76
2023-02-14T09:32:16.158Z,52.87
2023-02-14T09:35:11.243Z,53.04
2023-02-14T09:37:56.441Z,52.45
2023-02-14T09:40:26.254Z,52.50
2023-02-14T09:43:09.929Z,53.06
2023-02-14T09:45:38.234Z,53.40
2023-02-14T09:48:43.913Z,53.21
2023-02-14T09:51:18.491Z,51.86
2023-02-14T09:54:12.551Z,52.77
2023-02-14T09:57:11.684Z,52.54
2023-02-14T09:59:51.944Z,51.78
2023-02-14T10:02:52.068Z,52.16
2023-02-14T10:05:49.853Z,52.01
2023-02-14T10:08:56.117Z,51.72
2023-02-14T10:11:27.033Z,51.49
2023-02-14T10:13:59.704Z,51.41
2023-02-14T10:16:37.064Z,50.56
2023-02-14T10:19:40.707Z,50.05
2023-02-14T10:22:23.851Z,50.04
2023-02-14T10:25:01.985Z,48.79
2023-02-14T10:27:48.932Z,48.60
2023-02-14T10:30:21.306Z,48.94
2023-02-14T10:32:59.082Z,48.74
2023-02-14T10:35:46.503Z,48.17
2023-02-14T10:38:25.175Z,47.78
2023-02-14T10:41:16.431Z,47.45
2023-02-14T10:44:18.364Z,46.88
2023-02-14T10:47:33.529Z,46.63
2023-02-14T10:50:20.459Z,46.10
2023-02-14T10:53:08.664Z,46.12
2023-02-14T10:56:00.587Z,44.77
2023-02-14T10:58:31.744Z,44.28
2023-02-14T11:01:07.846Z,44.53
2023-02-14T11:04:06.902Z,44.63
2023-02-14T11:06:39.830Z,44.71
2023-02-14T11:09:12.345Z,43.92
2023-02-14T11:11:55.600Z,44.46
2023-02-14T11:14:43.428Z,44.23
2023-02-14T11:17:31.847Z,44.05
2023-02-14T11:20:12.994Z,44.28
2023-02-14T11:22:39.829Z,43.48
2023-02-14T11:25:34.556Z,43.34
2023-02-14T11:28:08.773Z,43.64
2023-02-14T11:30:41.417Z,44.27
2023-02-14T11:33:23.634Z,43.81
2023-02-14T11:35:58.168Z,44.47
2023-02-14T11:38:38.922Z,43.91
2023-02-14T11:41:15.973Z,44.90
2023-02-14T11:43:49.374Z,45.02
2023-02-14T11:46:22.993Z,45.34
2023-02-14T11:49:26.727Z,46.26
2023-02-14T11:51:53.455Z,46.29
2023-02-14T11:54:38.100Z,45.19
2023-02-14T11:57:14.924Z,45.62
2023-02-14T11:59:46.436Z,45.63
2023-02-14T12:02:28.027Z,45.49
2023-02-14T12:05:07.259Z,44.87
2023-02-14T12:07:37.991Z,45.27
2023-02-14T12:10:18.181Z,45.03
2023-02-14T12:13:14.718Z,44.53
2023-02-14T12:15:54.581Z,45.15
2023-02-14T12:18:47.327Z,45.58
2023-02-14T12:21:30.820Z,44.82
2023-02-14T12:24:20.406Z,44.74
2023-02-14T12:26:57.999Z,44.68
2023-02-14T12:29:46.696Z,44.88
2023-02-14T12:32:39.890Z,45.02
2023-02-14T12:35:22.192Z,44.05
2023-02-14T12:38:41.901Z,44.15
2023-02-14T12:41:39.879Z,45.11
2023-02-14T12:44:26.565Z,45.00
2023-02-14T12:47:10.269Z,44.69
2023-02-14T12:50:02.400Z,44.68
2023-02-14T12:52:41.287Z,44.33
2023-02-14T12:55:19.109Z,44.27
2023-02-14T12:58:31.420Z,43.37
2023-02-14T13:01:07.035Z,44.21
2023-02-14T13:04:25.688Z,43.98
2023-02-14T13:07:29.237Z,43.73
2023-02-14T13:13:56.973Z,43.74
2023-02-14T13:16:56.165Z,43.29
2023-02-14T13:20:01.970Z,43.16
2023-02-14T13:22:45.826Z,43.64
2023-02-14T13:25:37.237Z,42.80
2023-02-14T13:28:16.979Z,43.40
2023-02-14T13:30:46.557Z,43.63
2023-02-14T13:33:43.009Z,42.98
2023-02-14T13:36:20.210Z,43.12
2023-02-14T13:38:57.607Z,43.16
2023-02-14T13:41:26.335Z,42.35
2023-02-14T13:44:02.629Z,43.13
2023-02-14T13:46:51.661Z,43.92
2023-02-14T13:49:39.573Z,43.79
2023-02-14T13:52:38.636Z,43.64
2023-02-14T13:55:10.136Z,44.35
2023-02-14T13:57:47.743Z,44.23
2023-02-14T14:00:17.785Z,43.57
2023-02-14T14:02:58.488Z,42.90
2023-02-14T14:05:32.695Z,42.83
2023-02-14T14:08:20.471Z,43.14
2023-02-14T14:11:07.819Z,43.87
2023-02-14T14:14:10.017Z,43.56
2023-02-14T14:16:40.609Z,44.27
2023-02-14T14:19:26.856Z,43.86
2023-02-14T14:22:01.665Z,44.57
2023-02-14T14:24:33.791Z,44.53
2023-02-14T14:27:23.276Z,44.96
2023-02-14T14:30:09.413Z,45.07
2023-02-14T14:32:45.947Z,44.86
2023-02-14T14:35:18.295Z,44.46
2023-02-14T14:37:57.184Z,44.75
2023-02-14T14:40:51.072Z,45.48
2023-02-14T14:43:34.077Z,44.27
2023-02-14T14:46:06.103Z,44.67
2023-02-14T14:48:38.357Z,45.18
2023-02-14T14:51:18.115Z,44.77
2023-02-14T14:54:16.071Z,45.77
2023-02-14T14:57:03.904Z,46.09
2023-02-14T14:59:40.639Z,44.96
2023-02-14T15:02:27.226Z,45.12
2023-02-14T15:04:54.094Z,45.45
2023-02-14T15:07:32.907Z,45.77
2023-02-14T15:10:02.679Z,45.08
2023-02-14T15:12:59.023Z,45.30
2023-02-14T15:15:31.961Z,44.77
2023-02-14T15:17:59.445Z,45.33
2023-02-14T15:20:29.272Z,44.95
2023-02-14T15:22:55.863Z,45.21
2023-02-14T15:25:24.718Z,44.89
2023-02-14T15:27:51.848Z,44.31
2023-02-14T15:30:26.105Z,44.93
2023-02-14T15:33:06.330Z,44.92
2023-02-14T15:35:37.672Z,44.48
2023-02-14T15:38:07.037Z,45.22
2023-02-14T15:40:35.671Z,45.57
2023-02-14T15:43:25.242Z,46.24
2023-02-14T15:46:04.878Z,46.28
2023-02-14T15:48:35.206Z,46.42
2023-02-14T15:51:08.239Z,46.52
2023-02-14T15:53:44.638Z,47.19
2023-02-14T15:56:39.122Z,47.15
2023-02-14T15:59:37.377Z,47.46
2023-02-14T16:02:21.159Z,46.89
2023-02-14T16:05:02.327Z,47.55
2023-02-14T16:07:30.044Z,47.82
2023-02-14T16:10:33.782Z,48.05
2023-02-14T16:13:07.300Z,48.11
2023-02-14T16:15:45.410Z,48.41
2023-02-14T16:18:45.620Z,48.83
2023-02-14T16:21:36.530Z,48.99
2023-02-14T16:24:13.055Z,49.15
2023-02-14T16:26:50.495Z,49.08
2023-02-14T16:29:22.758Z,49.03
2023-02-14T16:34:38.482Z,49.18
2023-02-14T16:37:22.583Z,49.54
2023-02-14T16:39:56.027Z,50.04
2023-02-14T16:42:24.045Z,49.72
2023-02-14T16:44:51.204Z,50.32
2023-02-14T16:47:20.017Z,50.33
2023-02-14T16:49:50.772Z,50.16
2023-02-14T16:52:26.054Z,49.92
2023-02-14T16:54:53.640Z,50.45
2023-02-14T16:57:29.019Z,50.87
2023-02-14T17:00:00.205Z,51.52
2023-02-14T17:02:28.496Z,51.17
2023-02-14T17:04:59.051Z,51.39
2023-02-14T17:07:33.329Z,51.36
2023-02-14T17:10:09.991Z,52.02
2023-02-14T17:12:42.722Z,51.92
2023-02-14T17:15:14.767Z,51.87
2023-02-14T17:17:41.273Z,52.61
2023-02-14T17:20:14.013Z,52.00
2023-02-14T17:22:47.610Z,51.90
2023-02-14T17:25:14.429Z,51.68
2023-02-14T17:27:44.092Z,52.35
2023-02-14T17:30:15.065Z,52.37
2023-02-14T17:32:45.631Z,52.36
2023-02-14T17:35:14.564Z,53.09
2023-02-14T17:37:42.925Z,53.45
2023-02-14T17:40:13.692Z,53.52
2023-02-14T17:42:41.203Z,53.18
2023-02-14T17:45:11.709Z,52.42
2023-02-14T17:47:41.603Z,52.62
2023-02-14T17:50:08.558Z,52.35
2023-02-14T17:52:41.978Z,52.37
2023-02-14T17:55:26.253Z,52.49
2023-02-14T17:57:53.437Z,52.76
2023-02-14T18:00:28.869Z,52.83
2023-02-14T18:05:41.001Z,53.00
2023-02-14T18:08:15.426Z,53.48
2023-02-14T18:10:41.932Z,53.62
2023-02-14T18:13:08.795Z,53.35
2023-02-14T18:15:36.732Z,53.46
2023-02-14T18:18:03.575Z,53.69
2023-02-14T18:20:30.216Z,53.82
2023-02-14T18:23:07.248Z,54.63
2023-02-14T18:25:34.562Z,54.20
2023-02-14T18:28:11.403Z,54.53
2023-02-14T18:30:43.140Z,55.21
2023-02-14T18:33:09.719Z,55.58
2023-02-14T18:35:36.406Z,55.08
2023-02-14T18:38:07.779Z,55.42
2023-02-14T18:40:34.871Z,55.45
2023-02-14T18:43:07.931Z,55.56
2023-02-14T18:45:38.800Z,55.76
2023-02-14T18:48:06.498Z,55.74
2023-02-14T18:50:34.099Z,55.43
2023-02-14T18:53:05.746Z,56.31
2023-02-14T18:55:32.584Z,56.20
2023-02-14T18:58:07.774Z,56.04
2023-02-14T19:00:46.184Z,56.65
2023-02-14T19:03:19.073Z,56.42
2023-02-14T19:05:49.791Z,57.28
2023-02-14T19:08:16.470Z,57.20
2023-02-14T19:10:45.818Z,56.59
2023-02-14T19:13:19.502Z,57.07
2023-02-14T19:15:47.780Z,57.28
2023-02-14T19:18:14.429Z,57.84
2023-02-14T19:20:53.373Z,57.85
2023-02-14T19:23:32.335Z,57.40
2023-02-14T19:26:08.366Z,57.70
2023-02-14T19:28:46.424Z,57.69
2023-02-14T19:31:45.689Z,57.53
2023-02-14T19:34:42.438Z,58.67
2023-02-14T19:40:20.369Z,58.22
2023-02-14T19:42:48.767Z,58.79
2023-02-14T19:45:20.541Z,59.11
2023-02-14T19:47:59.534Z,58.82
2023-02-14T19:50:32.864Z,59.17
2023-02-14T19:53:01.153Z,58.75
2023-02-14T19:55:33.889Z,58.84
2023-02-14T19:58:00.458Z,59.11
2023-02-14T20:00:27.122Z,59.34
2023-02-14T20:02:56.046Z,59.09
2023-02-14T20:05:27.267Z,59.29
2023-02-14T20:07:54.779Z,59.27
2023-02-14T20:10:31.040Z,59.28
2023-02-14T20:13:12.260Z,59.45
2023-02-14T20:15:44.120Z,59.39
2023-02-14T20:18:15.815Z,59.78
2023-02-14T20:21:03.395Z,59.62
2023-02-14T20:23:39.442Z,60.21
2023-02-14T20:26:12.464Z,59.71
2023-02-14T20:28:50.302Z,60.47
2023-02-14T20:31:21.372Z,59.96
2023-02-14T20:33:52.909Z,59.49
2023-02-14T20:36:35.825Z,59.11
2023-02-14T20:39:13.133Z,58.76
2023-02-14T20:41:41.495Z,58.60
2023-02-14T20:44:18.816Z,59.12
2023-02-14T20:47:08.267Z,59.15
2023-02-14T20:49:45.576Z,59.15
2023-02-14T20:53:24.782Z,58.76
2023-02-14T20:55:18.995Z,59.67
2023-02-14T20:58:20.691Z,59.83
2023-02-14T21:01:19.555Z,60.41
2023-02-14T21:03:56.497Z,60.81
2023-02-14T21:06:40.313Z,60.42
2023-02-14T21:09:17.830Z,60.82
2023-02-14T21:12:00.980Z,61.02
2023-02-14T21:14:37.162Z,60.31
2023-02-14T21:17:05.651Z,61.34
2023-02-14T21:19:52.205Z,61.66
2023-02-14T21:22:19.051Z,61.53
2023-02-14T21:24:48.099Z,61.38
2023-02-14T21:27:15.608Z,61.76
2023-02-14T21:29:53.783Z,61.79
2023-02-14T21:32:26.617Z,61.57
2023-02-14T21:35:01.482Z,61.48
2023-02-14T21:37:37.759Z,61.97
2023-02-14T21:40:10.917Z,61.75
2023-02-14T21:42:52.051Z,62.19
2023-02-14T21:45:56.005Z,61.83
2023-02-14T21:48:44.822Z,62.07
2023-02-14T21:51:11.970Z,62.11
2023-02-14T21:53:39.342Z,62.50
2023-02-14T21:56:22.832Z,62.63
2023-02-14T21:58:52.469Z,62.08
2023-02-14T22:01:24.729Z,62.37
2023-02-14T22:03:57.011Z,63.12
2023-02-14T22:06:35.477Z,62.61
2023-02-14T22:09:22.462Z,62.45
2023-02-14T22:11:56.479Z,62.45
2023-02-14T22:14:30.272Z,63.29
2023-02-14T22:16:57.186Z,63.12
2023-02-14T22:19:30.147Z,62.43
2023-02-14T22:22:02.610Z,62.30
2023-02-14T22:24:31.876Z,62.58
2023-02-14T22:26:58.492Z,62.30
2023-02-14T22:29:29.051Z,62.61
2023-02-14T22:31:57.315Z,62.67
2023-02-14T22:34:24.062Z,63.13
2023-02-14T22:37:08.517Z,63.80
2023-02-14T22:39:35.170Z,63.75
2023-02-14T22:42:08.227Z,63.72
2023-02-14T22:44:50.636Z,63.70
2023-02-14T22:47:20.353Z,64.14
2023-02-14T22:49:46.907Z,63.92
2023-02-14T22:52:22.360Z,64.12
2023-02-14T22:54:56.481Z,63.89
2023-02-14T22:57:26.247Z,64.38
2023-02-14T22:59:52.811Z,64.43
2023-02-14T23:02:19.765Z,64.32
2023-02-14T23:04:57.266Z,64.09
2023-02-14T23:07:28.436Z,63.89
2023-02-14T23:10:01.242Z,63.81
2023-02-14T23:12:47.817Z,64.00
2023-02-14T23:18:36.162Z,64.06
2023-02-14T23:21:30.788Z,63.83
2023-02-14T23:23:57.386Z,63.32
2023-02-14T23:26:24.080Z,63.92
2023-02-14T23:28:50.604Z,63.46
2023-02-14T23:31:23.077Z,63.83
2023-02-14T23:33:55.482Z,63.65
2023-02-14T23:36:24.250Z,64.40
2023-02-14T23:38:53.521Z,63.97
2023-02-14T23:41:38.689Z,63.91
2023-02-14T23:44:08.355Z,63.88
2023-02-14T23:46:35.024Z,64.15
2023-02-14T23:49:01.709Z,64.35
2023-02-14T23:51:29.020Z,64.98
2023-02-14T23:54:54.907Z,64.70
2023-02-14T23:56:57.563Z,64.79
2023-02-14T23:59:26.992Z,64.65
